Annandale, Pennsylvania
Current Conditions -  °F | °C
As of 10:55 AM on Tuesday 21 Oct 2014 (Local Time) from KFKL Reporting Station
Overcast Overcast  
Wind Chill: 46°   Ceiling: 4500
Heat Index: 48°   Visibility: 5mi
Dew Point: 45°   Wind: 5mph
Humidity: 87%   Direction: 320°NW
Pressure: 29.88"   Gusts: NA
Location:  41.1142°N, 79.9031°W
Report Text: KFKL 211455Z 32004KT 5SM FEW013 SCT035 OVC045 09/07 A2988 RMK AO1 P0010 60040 52010
Loading
Personal Weather Stations






























Interactive Weather Map
Tropical Storm Tracking
New forecast layout! Learn more

10-Day Weather Forecast

Advertisements
Track Severe Weather on mobile